createdAt,value
2019-02-05T00:00:11.944Z,1011.8
2019-02-05T00:01:14.214Z,1011.8
2019-02-05T00:02:16.630Z,1011.8
2019-02-05T00:03:18.787Z,1011.8
2019-02-05T00:04:20.925Z,1011.7
2019-02-05T00:05:23.045Z,1011.8
2019-02-05T00:06:25.214Z,1011.8
2019-02-05T00:07:27.357Z,1011.8
2019-02-05T00:08:29.939Z,1011.8
2019-02-05T00:09:32.613Z,1011.8
2019-02-05T00:10:35.511Z,1011.8
2019-02-05T00:11:37.672Z,1011.8
2019-02-05T00:12:39.824Z,1011.8
2019-02-05T00:13:41.962Z,1011.8
2019-02-05T00:14:44.125Z,1011.9
2019-02-05T00:15:46.283Z,1011.8
2019-02-05T00:16:48.440Z,1012
2019-02-05T00:17:50.617Z,1011.9
2019-02-05T00:18:52.876Z,1011.8
2019-02-05T00:19:55.420Z,1011.9
2019-02-05T00:20:58.787Z,1011.8
2019-02-05T00:22:01.639Z,1011.8
2019-02-05T00:23:04.083Z,1011.8
2019-02-05T00:24:06.211Z,1011.9
2019-02-05T00:25:08.498Z,1011.9
2019-02-05T00:26:10.657Z,1011.9
2019-02-05T00:27:12.905Z,1011.9
2019-02-05T00:28:15.111Z,1011.8
2019-02-05T00:29:17.261Z,1011.8
2019-02-05T00:30:19.713Z,1011.8
2019-02-05T00:31:22.054Z,1011.8
2019-02-05T00:32:25.358Z,1011.8
2019-02-05T00:33:27.811Z,1011.7
2019-02-05T00:34:29.944Z,1011.8
2019-02-05T00:35:32.116Z,1011.8
2019-02-05T00:36:34.326Z,1011.8
2019-02-05T00:37:36.593Z,1011.8
2019-02-05T00:38:38.772Z,1011.8
2019-02-05T00:39:41.118Z,1011.8
2019-02-05T00:40:43.626Z,1011.8
2019-02-05T00:41:46.124Z,1011.8
2019-02-05T00:42:49.101Z,1011.8
2019-02-05T00:43:51.924Z,1011.8
2019-02-05T00:44:54.069Z,1011.8
2019-02-05T00:45:56.209Z,1011.8
2019-02-05T00:46:58.345Z,1011.8
2019-02-05T00:48:00.514Z,1011.8
2019-02-05T00:49:03.217Z,1011.9
2019-02-05T00:50:05.360Z,1011.8
2019-02-05T00:51:07.809Z,1011.8
2019-02-05T00:52:09.948Z,1011.8
2019-02-05T00:53:12.380Z,1011.9
2019-02-05T00:54:15.707Z,1011.8
2019-02-05T00:55:18.386Z,1011.9
2019-02-05T00:56:20.913Z,1012
2019-02-05T00:57:23.046Z,1011.9
2019-02-05T00:58:25.186Z,1011.9
2019-02-05T00:59:27.343Z,1011.9
2019-02-05T01:00:29.476Z,1012
2019-02-05T01:01:31.660Z,1012
2019-02-05T01:02:33.810Z,1012
2019-02-05T01:03:36.120Z,1012
2019-02-05T01:04:38.525Z,1012
2019-02-05T01:05:41.927Z,1012.1
2019-02-05T01:06:44.066Z,1012
2019-02-05T01:07:46.200Z,1012
2019-02-05T01:08:48.741Z,1012
2019-02-05T01:09:50.878Z,1012
2019-02-05T01:10:53.326Z,1012
2019-02-05T01:11:55.482Z,1012
2019-02-05T01:12:57.632Z,1012.1
2019-02-05T01:13:59.794Z,1012
2019-02-05T01:15:02.272Z,1012
2019-02-05T01:16:05.493Z,1011.8
2019-02-05T01:17:07.719Z,1012.1
2019-02-05T01:18:09.863Z,1012
2019-02-05T01:19:12.282Z,1012.1
2019-02-05T01:20:14.435Z,1012
2019-02-05T01:21:16.585Z,1012
2019-02-05T01:22:18.716Z,1012.1
2019-02-05T01:23:21.529Z,1012.1
2019-02-05T01:24:23.978Z,1012.2
2019-02-05T01:25:26.521Z,1012
2019-02-05T01:26:31.277Z,1012
2019-02-05T01:27:34.180Z,1012.1
2019-02-05T01:28:37.388Z,1012
2019-02-05T01:29:39.917Z,1012
2019-02-05T01:30:42.081Z,1012.1
2019-02-05T01:31:44.220Z,1012.1
2019-02-05T01:32:46.647Z,1011.9
2019-02-05T01:33:48.771Z,1012
2019-02-05T01:34:50.903Z,1011.9
2019-02-05T01:35:53.125Z,1011.9
2019-02-05T01:36:55.264Z,1011.9
2019-02-05T01:37:57.702Z,1012
2019-02-05T01:39:00.826Z,1012
2019-02-05T01:40:03.000Z,1011.9
2019-02-05T01:41:05.133Z,1012
2019-02-05T01:42:07.282Z,1011.9
2019-02-05T01:43:09.809Z,1011.9
2019-02-05T01:44:11.946Z,1011.9
2019-02-05T01:45:14.090Z,1011.9
2019-02-05T01:46:16.509Z,1011.9
2019-02-05T01:47:18.690Z,1012
2019-02-05T01:48:21.114Z,1011.9
2019-02-05T01:49:24.155Z,1011.9
2019-02-05T01:50:27.723Z,1012
2019-02-05T01:51:30.280Z,1011.9
2019-02-05T01:52:32.420Z,1012
2019-02-05T01:53:34.545Z,1012
2019-02-05T01:54:36.688Z,1012
2019-02-05T01:55:39.210Z,1012
2019-02-05T01:56:41.737Z,1012
2019-02-05T01:57:43.902Z,1011.9
2019-02-05T01:58:46.057Z,1011.9
2019-02-05T01:59:48.430Z,1012
2019-02-05T02:00:50.828Z,1011.9
2019-02-05T02:01:54.234Z,1011.9
2019-02-05T02:02:56.598Z,1011.9
2019-02-05T02:03:59.129Z,1011.8
2019-02-05T02:05:01.368Z,1011.8
2019-02-05T02:06:03.514Z,1011.8
2019-02-05T02:07:05.796Z,1011.8
2019-02-05T02:08:08.322Z,1011.8
2019-02-05T02:09:10.453Z,1011.8
2019-02-05T02:10:12.598Z,1011.7
2019-02-05T02:11:15.034Z,1011.7
2019-02-05T02:12:18.209Z,1011.7
2019-02-05T02:13:20.372Z,1011.7
2019-02-05T02:14:22.521Z,1011.7
2019-02-05T02:15:24.671Z,1011.7
2019-02-05T02:16:26.801Z,1011.5
2019-02-05T02:17:29.021Z,1011.6
2019-02-05T02:18:31.163Z,1011.6
2019-02-05T02:19:33.333Z,1011.6
2019-02-05T02:20:35.474Z,1011.5
2019-02-05T02:21:38.198Z,1011.5
2019-02-05T02:22:41.642Z,1011.5
2019-02-05T02:23:44.709Z,1011.4
2019-02-05T02:24:47.128Z,1011.5
2019-02-05T02:25:49.253Z,1011.5
2019-02-05T02:26:52.903Z,1011.6
2019-02-05T02:27:55.053Z,1011.5
2019-02-05T02:28:57.279Z,1011.6
2019-02-05T02:29:59.725Z,1011.5
2019-02-05T02:31:02.131Z,1011.5
2019-02-05T02:32:04.409Z,1011.5
2019-02-05T02:33:07.312Z,1011.5
2019-02-05T02:34:10.625Z,1011.5
2019-02-05T02:35:13.303Z,1011.5
2019-02-05T02:36:16.012Z,1011.5
2019-02-05T02:37:18.161Z,1011.5
2019-02-05T02:38:20.583Z,1011.5
2019-02-05T02:39:22.856Z,1011.5
2019-02-05T02:40:25.102Z,1011.5
2019-02-05T02:41:27.250Z,1011.6
2019-02-05T02:42:29.398Z,1011.6
2019-02-05T02:43:31.553Z,1011.4
2019-02-05T02:44:33.932Z,1011.5
2019-02-05T02:45:37.268Z,1011.5
2019-02-05T02:46:39.453Z,1011.6
2019-02-05T02:47:41.599Z,1011.6
2019-02-05T02:48:43.880Z,1011.5
2019-02-05T02:49:46.054Z,1011.5
2019-02-05T02:50:48.481Z,1011.5
2019-02-05T02:51:50.621Z,1011.5
2019-02-05T02:52:53.083Z,1011.5
2019-02-05T02:53:56.256Z,1011.5
2019-02-05T02:54:58.609Z,1011.5
2019-02-05T02:56:01.070Z,1011.5
2019-02-05T02:57:05.401Z,1011.5
2019-02-05T02:58:07.574Z,1011.6
2019-02-05T02:59:09.796Z,1011.5
2019-02-05T03:00:12.105Z,1011.5
2019-02-05T03:01:14.558Z,1011.5
2019-02-05T03:02:17.287Z,1011.6
2019-02-05T03:03:19.469Z,1011.6
2019-02-05T03:04:21.910Z,1011.6
2019-02-05T03:05:24.780Z,1011.6
2019-02-05T03:06:27.253Z,1011.6
2019-02-05T03:07:30.729Z,1011.6
2019-02-05T03:08:32.907Z,1011.7
2019-02-05T03:09:35.082Z,1011.5
2019-02-05T03:10:37.328Z,1011.5
2019-02-05T03:11:39.601Z,1011.6
2019-02-05T03:12:41.785Z,1011.6
2019-02-05T03:13:43.923Z,1011.6
2019-02-05T03:14:46.118Z,1011.6
2019-02-05T03:15:48.411Z,1011.6
2019-02-05T03:16:51.047Z,1011.6
2019-02-05T03:17:54.354Z,1011.6
2019-02-05T03:18:56.851Z,1011.6
2019-02-05T03:19:59.729Z,1011.6
2019-02-05T03:21:02.479Z,1011.7
2019-02-05T03:22:04.740Z,1011.7
2019-02-05T03:23:07.228Z,1011.8
2019-02-05T03:24:09.453Z,1011.7
2019-02-05T03:25:11.688Z,1011.7
2019-02-05T03:26:14.162Z,1011.7
2019-02-05T03:27:18.676Z,1011.7
2019-02-05T03:28:22.831Z,1011.7
2019-02-05T03:29:25.317Z,1011.7
2019-02-05T03:30:27.631Z,1011.7
2019-02-05T03:31:30.158Z,1011.8
2019-02-05T03:32:32.752Z,1011.8
2019-02-05T03:33:35.002Z,1011.8
2019-02-05T03:34:37.526Z,1011.8
2019-02-05T03:35:39.988Z,1011.8
2019-02-05T03:36:42.289Z,1011.8
2019-02-05T03:37:45.259Z,1011.8
2019-02-05T03:38:49.091Z,1011.8
2019-02-05T03:39:51.291Z,1011.8
2019-02-05T03:40:53.673Z,1011.8
2019-02-05T03:41:55.848Z,1011.8
2019-02-05T03:42:58.021Z,1011.8
2019-02-05T03:44:00.185Z,1011.8
2019-02-05T03:45:02.634Z,1011.8
2019-02-05T03:46:05.121Z,1011.8
2019-02-05T03:47:07.839Z,1011.8
2019-02-05T03:48:10.132Z,1011.8
2019-02-05T03:49:13.423Z,1011.9
2019-02-05T03:50:15.672Z,1011.9
2019-02-05T03:51:17.839Z,1011.8
2019-02-05T03:52:19.998Z,1011.8
2019-02-05T03:53:22.161Z,1011.9
2019-02-05T03:54:24.332Z,1011.9
2019-02-05T03:55:26.524Z,1011.8
2019-02-05T03:56:28.686Z,1011.8
2019-02-05T03:57:32.660Z,1011.8
2019-02-05T03:58:35.155Z,1011.9
2019-02-05T03:59:38.577Z,1011.8
2019-02-05T04:00:40.759Z,1011.8
2019-02-05T04:01:43.207Z,1011.8
2019-02-05T04:02:45.490Z,1011.8
2019-02-05T04:03:47.648Z,1011.8
2019-02-05T04:04:50.094Z,1011.7
2019-02-05T04:05:52.270Z,1011.8
2019-02-05T04:06:54.482Z,1011.8
2019-02-05T04:07:56.690Z,1011.7
2019-02-05T04:08:59.732Z,1011.8
2019-02-05T04:10:02.927Z,1011.7
2019-02-05T04:11:06.700Z,1011.7
2019-02-05T04:12:09.243Z,1011.8
2019-02-05T04:13:11.434Z,1011.7
2019-02-05T04:14:13.584Z,1011.7
2019-02-05T04:15:15.761Z,1011.7
2019-02-05T04:16:17.944Z,1011.7
2019-02-05T04:17:20.095Z,1011.8
2019-02-05T04:18:22.578Z,1011.7
2019-02-05T04:19:25.026Z,1011.8
2019-02-05T04:20:27.524Z,1011.8
2019-02-05T04:21:30.760Z,1011.8
2019-02-05T04:22:32.931Z,1011.8
2019-02-05T04:23:35.085Z,1011.8
2019-02-05T04:24:37.270Z,1011.8
2019-02-05T04:25:39.460Z,1011.8
2019-02-05T04:26:41.698Z,1011.8
2019-02-05T04:27:47.728Z,1011.8
2019-02-05T04:28:50.241Z,1011.7
2019-02-05T04:29:52.635Z,1011.8
2019-02-05T04:30:54.809Z,1011.8
2019-02-05T04:31:57.342Z,1011.8
2019-02-05T04:33:00.900Z,1011.8
2019-02-05T04:34:03.117Z,1011.8
2019-02-05T04:35:05.291Z,1011.8
2019-02-05T04:36:07.459Z,1011.8
2019-02-05T04:37:09.898Z,1011.8
2019-02-05T04:38:12.079Z,1011.8
2019-02-05T04:39:14.548Z,1011.8
2019-02-05T04:40:16.726Z,1011.8
2019-02-05T04:41:19.607Z,1011.7
2019-02-05T04:42:22.014Z,1011.9
2019-02-05T04:43:24.529Z,1011.7
2019-02-05T04:44:27.870Z,1011.7
2019-02-05T04:45:34.594Z,1011.7
2019-02-05T04:46:37.085Z,1011.7
2019-02-05T04:47:39.238Z,1011.7
2019-02-05T04:48:44.038Z,1011.7
2019-02-05T04:49:46.821Z,1011.7
2019-02-05T04:50:48.984Z,1011.7
2019-02-05T04:51:51.443Z,1011.7
2019-02-05T04:52:53.730Z,1011.7
2019-02-05T04:53:56.160Z,1011.7
2019-02-05T04:54:58.696Z,1011.7
2019-02-05T04:56:02.511Z,1011.7
2019-02-05T04:57:05.924Z,1011.8
2019-02-05T04:58:08.502Z,1011.8
2019-02-05T04:59:10.961Z,1011.7
2019-02-05T05:00:13.425Z,1011.7
2019-02-05T05:01:16.025Z,1011.8
2019-02-05T05:02:18.234Z,1011.7
2019-02-05T05:03:20.418Z,1011.7
2019-02-05T05:04:23.262Z,1011.7
2019-02-05T05:05:25.451Z,1011.7
2019-02-05T05:06:27.965Z,1011.6
2019-02-05T05:07:31.418Z,1011.7
2019-02-05T05:08:33.876Z,1011.7
2019-02-05T05:09:36.059Z,1011.7
2019-02-05T05:10:38.212Z,1011.7
2019-02-05T05:11:41.520Z,1011.7
2019-02-05T05:12:44.524Z,1011.7
2019-02-05T05:13:46.700Z,1011.7
2019-02-05T05:14:48.903Z,1011.8
2019-02-05T05:15:51.199Z,1011.7
2019-02-05T05:16:53.520Z,1011.8
2019-02-05T05:17:56.701Z,1011.8
2019-02-05T05:19:00.325Z,1011.8
2019-02-05T05:20:02.566Z,1011.8
2019-02-05T05:21:04.737Z,1011.8
2019-02-05T05:22:07.189Z,1011.8
2019-02-05T05:23:09.357Z,1011.8
2019-02-05T05:24:11.539Z,1011.9
2019-02-05T05:25:13.713Z,1011.9
2019-02-05T05:26:15.870Z,1011.8
2019-02-05T05:27:18.317Z,1011.9
2019-02-05T05:28:21.015Z,1011.9
2019-02-05T05:29:23.992Z,1011.9
2019-02-05T05:30:26.595Z,1011.9
2019-02-05T05:31:28.749Z,1011.9
2019-02-05T05:32:31.224Z,1011.9
2019-02-05T05:33:33.410Z,1011.9
2019-02-05T05:34:35.631Z,1012
2019-02-05T05:35:44.676Z,1012
2019-02-05T05:36:47.295Z,1011.9
2019-02-05T05:37:50.219Z,1011.9
2019-02-05T05:38:52.677Z,1011.9
2019-02-05T05:39:58.064Z,1012
2019-02-05T05:41:01.505Z,1012
2019-02-05T05:42:03.799Z,1012
2019-02-05T05:43:06.101Z,1012
2019-02-05T05:44:09.977Z,1011.9
2019-02-05T05:45:12.434Z,1011.9
2019-02-05T05:46:15.441Z,1012
2019-02-05T05:47:17.677Z,1012
2019-02-05T05:48:19.833Z,1012
2019-02-05T05:49:22.044Z,1012
2019-02-05T05:50:24.404Z,1012
2019-02-05T05:51:26.817Z,1012
2019-02-05T05:52:30.054Z,1012
2019-02-05T05:53:32.518Z,1012
2019-02-05T05:54:34.702Z,1012
2019-02-05T05:55:36.999Z,1012
2019-02-05T05:56:39.168Z,1012.1
2019-02-05T05:57:42.023Z,1012.1
2019-02-05T05:58:44.194Z,1012
2019-02-05T05:59:46.938Z,1012.1
2019-02-05T06:00:49.313Z,1012
2019-02-05T06:01:52.111Z,1012.1
2019-02-05T06:02:55.459Z,1012
2019-02-05T06:03:57.834Z,1012
2019-02-05T06:04:59.969Z,1012.1
2019-02-05T06:06:02.316Z,1012.1
2019-02-05T06:07:04.490Z,1012.1
2019-02-05T06:08:06.679Z,1012.1
2019-02-05T06:09:08.836Z,1012.1
2019-02-05T06:10:11.040Z,1012
2019-02-05T06:11:13.391Z,1012
2019-02-05T06:12:15.845Z,1012.1
2019-02-05T06:13:19.215Z,1012.1
2019-02-05T06:14:21.380Z,1012.1
2019-02-05T06:15:23.560Z,1012.1
2019-02-05T06:16:25.739Z,1012.1
2019-02-05T06:17:27.919Z,1012.1
2019-02-05T06:18:30.117Z,1012.1
2019-02-05T06:19:32.589Z,1012.1
2019-02-05T06:20:35.042Z,1012.1
2019-02-05T06:21:37.502Z,1012.2
2019-02-05T06:22:40.122Z,1012.2
2019-02-05T06:23:43.394Z,1012.2
2019-02-05T06:24:46.016Z,1012.2
2019-02-05T06:25:48.606Z,1012.4
2019-02-05T06:26:51.073Z,1012.3
2019-02-05T06:27:53.253Z,1012.3
2019-02-05T06:28:55.447Z,1012.3
2019-02-05T06:29:57.613Z,1012.3
2019-02-05T06:30:59.783Z,1012.3
2019-02-05T06:32:02.115Z,1012.2
2019-02-05T06:33:04.715Z,1012.3
2019-02-05T06:34:08.372Z,1012.2
2019-02-05T06:35:10.553Z,1012.2
2019-02-05T06:36:12.728Z,1012.1
2019-02-05T06:37:15.751Z,1012.3
2019-02-05T06:38:18.008Z,1012.2
2019-02-05T06:39:20.193Z,1012.2
2019-02-05T06:40:22.385Z,1012.2
2019-02-05T06:41:24.559Z,1012.2
2019-02-05T06:42:26.711Z,1012.2
2019-02-05T06:43:29.229Z,1012.2
2019-02-05T06:44:32.493Z,1012.2
2019-02-05T06:45:34.633Z,1012.2
2019-02-05T06:46:36.819Z,1012.2
2019-02-05T06:47:38.984Z,1012.2
2019-02-05T06:48:41.144Z,1012.2
2019-02-05T06:49:43.412Z,1012.3
2019-02-05T06:50:45.631Z,1012.2
2019-02-05T06:51:47.786Z,1012.3
2019-02-05T06:52:49.971Z,1012.3
2019-02-05T06:53:52.270Z,1012.3
2019-02-05T06:54:55.333Z,1012.4
2019-02-05T06:55:57.522Z,1012.4
2019-02-05T06:56:59.676Z,1012.5
2019-02-05T06:58:02.483Z,1012.5
2019-02-05T06:59:04.652Z,1012.6
2019-02-05T07:00:06.844Z,1012.4
2019-02-05T07:01:09.052Z,1012.5
2019-02-05T07:02:11.224Z,1012.5
2019-02-05T07:03:13.508Z,1012.7
2019-02-05T07:04:16.172Z,1012.6
2019-02-05T07:05:19.405Z,1012.6
2019-02-05T07:06:21.773Z,1012.7
2019-02-05T07:07:23.986Z,1012.8
2019-02-05T07:08:26.238Z,1012.8
2019-02-05T07:09:28.602Z,1012.8
2019-02-05T07:10:30.828Z,1012.8
2019-02-05T07:11:33.132Z,1012.8
2019-02-05T07:12:35.364Z,1012.8
2019-02-05T07:13:37.600Z,1012.8
2019-02-05T07:14:40.118Z,1012.8
2019-02-05T07:15:43.555Z,1012.8
2019-02-05T07:16:45.788Z,1012.8
2019-02-05T07:17:50.793Z,1012.8
2019-02-05T07:18:53.025Z,1012.8
2019-02-05T07:19:55.272Z,1012.8
2019-02-05T07:20:57.531Z,1012.8
2019-02-05T07:21:59.772Z,1012.8
2019-02-05T07:23:02.028Z,1012.9
2019-02-05T07:24:04.322Z,1012.9
2019-02-05T07:25:06.913Z,1012.8
2019-02-05T07:26:09.354Z,1012.8
2019-02-05T07:27:12.576Z,1012.8
2019-02-05T07:28:14.790Z,1012.8
2019-02-05T07:29:17.338Z,1012.8
2019-02-05T07:30:19.663Z,1012.8
2019-02-05T07:31:22.227Z,1012.8
2019-02-05T07:32:24.466Z,1012.8
2019-02-05T07:33:27.133Z,1012.9
2019-02-05T07:34:29.961Z,1012.8
2019-02-05T07:35:32.452Z,1012.8
2019-02-05T07:36:35.386Z,1012.8
2019-02-05T07:37:38.792Z,1012.7
2019-02-05T07:38:41.078Z,1012.8
2019-02-05T07:39:43.455Z,1012.8
2019-02-05T07:40:45.756Z,1012.8
2019-02-05T07:41:48.247Z,1012.8
2019-02-05T07:42:50.547Z,1012.8
2019-02-05T07:43:52.864Z,1012.8
2019-02-05T07:44:55.167Z,1012.8
2019-02-05T07:45:57.617Z,1012.9
2019-02-05T07:47:01.107Z,1012.9
2019-02-05T07:48:03.393Z,1012.8
2019-02-05T07:49:05.765Z,1012.9
2019-02-05T07:50:08.032Z,1012.9
2019-02-05T07:51:10.297Z,1013
2019-02-05T07:52:12.563Z,1012.9
2019-02-05T07:53:14.905Z,1013
2019-02-05T07:54:17.222Z,1013
2019-02-05T07:55:19.820Z,1013.1
2019-02-05T07:56:22.590Z,1013
2019-02-05T07:57:26.221Z,1013.1
2019-02-05T07:58:28.505Z,1013
2019-02-05T07:59:30.753Z,1013.1
2019-02-05T08:00:33.011Z,1013.1
2019-02-05T08:01:35.296Z,1013.1
2019-02-05T08:02:37.969Z,1013.1
2019-02-05T08:03:40.233Z,1013.1
2019-02-05T08:04:42.545Z,1013.1
2019-02-05T08:05:45.068Z,1013.1
2019-02-05T08:06:48.099Z,1013.1
2019-02-05T08:07:51.142Z,1013.1
2019-02-05T08:08:53.773Z,1013.1
2019-02-05T08:09:56.047Z,1013.1
2019-02-05T08:10:58.325Z,1013.1
2019-02-05T08:12:00.592Z,1013.1
2019-02-05T08:13:03.256Z,1013.1
2019-02-05T08:14:06.495Z,1013.1
2019-02-05T08:15:09.208Z,1013.1
2019-02-05T08:16:12.287Z,1013.1
2019-02-05T08:17:15.121Z,1013.1
2019-02-05T08:18:17.400Z,1013.1
2019-02-05T08:19:19.684Z,1013.1
2019-02-05T08:20:22.051Z,1013
2019-02-05T08:21:24.324Z,1013.1
2019-02-05T08:22:26.559Z,1013.1
2019-02-05T08:23:29.224Z,1013.2
2019-02-05T08:24:31.864Z,1013.1
2019-02-05T08:25:34.432Z,1013.2
2019-02-05T08:26:37.709Z,1013.2
2019-02-05T08:27:40.815Z,1013.3
2019-02-05T08:28:43.107Z,1013.3
2019-02-05T08:29:45.371Z,1013.2
2019-02-05T08:30:47.629Z,1013.3
2019-02-05T08:31:49.925Z,1013.3
2019-02-05T08:32:52.172Z,1013.4
2019-02-05T08:33:54.451Z,1013.2
2019-02-05T08:34:56.740Z,1013.3
2019-02-05T08:35:59.532Z,1013.3
2019-02-05T08:37:02.443Z,1013.3
2019-02-05T08:38:05.335Z,1013.3
2019-02-05T08:39:07.694Z,1013.2
2019-02-05T08:40:10.319Z,1013.3
2019-02-05T08:41:12.571Z,1013.3
2019-02-05T08:42:14.850Z,1013.3
2019-02-05T08:43:17.546Z,1013.3
2019-02-05T08:44:19.836Z,1013.3
2019-02-05T08:45:22.482Z,1013.3
2019-02-05T08:46:25.233Z,1013.2
2019-02-05T08:47:28.162Z,1013.3
2019-02-05T08:48:30.993Z,1013.3
2019-02-05T08:49:33.293Z,1013.3
2019-02-05T08:50:35.908Z,1013.3
2019-02-05T08:51:38.446Z,1013.3
2019-02-05T08:52:40.704Z,1013.4
2019-02-05T08:53:42.970Z,1013.4
2019-02-05T08:54:45.237Z,1013.5
2019-02-05T08:55:47.514Z,1013.4
2019-02-05T08:56:50.046Z,1013.5
2019-02-05T08:57:53.461Z,1013.5
2019-02-05T08:58:55.701Z,1013.5
2019-02-05T08:59:58.348Z,1013.6
2019-02-05T09:01:00.890Z,1013.6
2019-02-05T09:02:03.182Z,1013.6
2019-02-05T09:03:05.836Z,1013.6
2019-02-05T09:04:08.111Z,1013.6
2019-02-05T09:05:10.653Z,1013.7
2019-02-05T09:06:13.315Z,1013.7
2019-02-05T09:07:15.910Z,1013.7
2019-02-05T09:08:19.044Z,1013.7
2019-02-05T09:09:21.954Z,1013.7
2019-02-05T09:10:24.239Z,1013.8
2019-02-05T09:11:26.517Z,1013.7
2019-02-05T09:12:28.819Z,1013.7
2019-02-05T09:13:31.093Z,1013.7
2019-02-05T09:14:33.637Z,1013.7
2019-02-05T09:15:35.891Z,1013.7
2019-02-05T09:16:38.539Z,1013.7
2019-02-05T09:17:40.903Z,1013.7
2019-02-05T09:18:43.946Z,1013.7
2019-02-05T09:19:46.222Z,1013.7
2019-02-05T09:20:48.511Z,1013.8
2019-02-05T09:21:50.774Z,1013.8
2019-02-05T09:22:53.037Z,1013.8
2019-02-05T09:23:55.306Z,1013.8
2019-02-05T09:24:57.598Z,1013.7
2019-02-05T09:25:59.860Z,1013.8
2019-02-05T09:27:02.143Z,1013.8
2019-02-05T09:28:04.714Z,1013.7
2019-02-05T09:29:07.977Z,1013.7
2019-02-05T09:30:10.257Z,1013.8
2019-02-05T09:31:12.512Z,1013.7
2019-02-05T09:32:14.768Z,1013.7
2019-02-05T09:33:17.044Z,1013.7
2019-02-05T09:34:19.287Z,1013.8
2019-02-05T09:35:21.880Z,1013.8
2019-02-05T09:36:24.160Z,1013.9
2019-02-05T09:37:26.835Z,1013.8
2019-02-05T09:38:29.462Z,1013.8
2019-02-05T09:39:33.017Z,1013.7
2019-02-05T09:40:35.694Z,1013.8
2019-02-05T09:41:37.939Z,1013.8
2019-02-05T09:42:40.564Z,1013.7
2019-02-05T09:43:43.778Z,1013.7
2019-02-05T09:44:47.828Z,1013.7
2019-02-05T09:45:50.765Z,1013.9
2019-02-05T09:46:53.072Z,1013.8
2019-02-05T09:47:55.778Z,1013.8
2019-02-05T09:48:58.176Z,1013.8
2019-02-05T09:50:01.136Z,1013.9
2019-02-05T09:51:04.640Z,1013.9
2019-02-05T09:52:06.894Z,1013.8
2019-02-05T09:53:09.251Z,1013.9
2019-02-05T09:54:11.582Z,1013.9
2019-02-05T09:55:13.833Z,1014
2019-02-05T09:56:16.394Z,1013.9
2019-02-05T09:57:18.669Z,1013.9
2019-02-05T09:58:20.901Z,1013.9
2019-02-05T09:59:23.227Z,1013.9
2019-02-05T10:00:25.798Z,1014
2019-02-05T10:01:29.723Z,1014
2019-02-05T10:02:31.994Z,1014
2019-02-05T10:03:34.393Z,1014
2019-02-05T10:04:36.672Z,1014
2019-02-05T10:05:38.949Z,1014
2019-02-05T10:06:41.245Z,1014.1
2019-02-05T10:07:43.788Z,1014.1
2019-02-05T10:08:46.064Z,1014.1
2019-02-05T10:09:48.591Z,1014.1
2019-02-05T10:10:51.225Z,1014.1
2019-02-05T10:11:54.969Z,1014.1
2019-02-05T10:12:57.219Z,1014.1
2019-02-05T10:13:59.607Z,1014
2019-02-05T10:15:02.270Z,1014
2019-02-05T10:16:04.563Z,1014
2019-02-05T10:17:06.936Z,1014
2019-02-05T10:18:09.188Z,1014
2019-02-05T10:19:11.827Z,1014
2019-02-05T10:20:14.239Z,1014
2019-02-05T10:21:17.155Z,1014.1
2019-02-05T10:22:20.608Z,1014.1
2019-02-05T10:23:22.889Z,1014.1
2019-02-05T10:24:25.159Z,1014
2019-02-05T10:25:27.463Z,1014
2019-02-05T10:26:30.154Z,1014.1
2019-02-05T10:27:32.387Z,1014
2019-02-05T10:28:35.013Z,1014.1
2019-02-05T10:29:37.296Z,1014.1
2019-02-05T10:30:39.665Z,1014.1
2019-02-05T10:31:42.311Z,1014.1
2019-02-05T10:32:45.620Z,1014.1
2019-02-05T10:33:55.605Z,1014.1
2019-02-05T10:34:58.173Z,1014.1
2019-02-05T10:36:01.795Z,1014.1
2019-02-05T10:37:04.054Z,1014.1
2019-02-05T10:38:06.309Z,1014
2019-02-05T10:39:08.610Z,1014.1
2019-02-05T10:40:10.864Z,1014
2019-02-05T10:41:13.175Z,1014.1
2019-02-05T10:42:15.452Z,1014
2019-02-05T10:43:18.348Z,1014.1
2019-02-05T10:44:21.369Z,1014
2019-02-05T10:45:24.017Z,1014
2019-02-05T10:46:26.341Z,1014
2019-02-05T10:47:28.814Z,1014
2019-02-05T10:48:31.085Z,1014
2019-02-05T10:49:33.630Z,1014
2019-02-05T10:50:36.210Z,1014
2019-02-05T10:51:38.786Z,1014
2019-02-05T10:52:41.140Z,1014
2019-02-05T10:53:43.614Z,1014
2019-02-05T10:54:46.323Z,1013.8
2019-02-05T10:55:49.261Z,1013.9
2019-02-05T10:56:51.950Z,1013.9
2019-02-05T10:57:54.343Z,1013.9
2019-02-05T10:58:56.911Z,1013.9
2019-02-05T11:00:09.390Z,1014
2019-02-05T11:01:12.033Z,1014
2019-02-05T11:02:14.375Z,1014
2019-02-05T11:03:16.667Z,1014
2019-02-05T11:04:18.913Z,1014
2019-02-05T11:05:21.509Z,1014
2019-02-05T11:06:24.281Z,1014
2019-02-05T11:07:27.696Z,1014
2019-02-05T11:08:29.936Z,1014
2019-02-05T11:09:32.214Z,1014
2019-02-05T11:10:34.474Z,1013.9
2019-02-05T11:11:36.751Z,1014
2019-02-05T11:12:39.063Z,1014
2019-02-05T11:13:41.599Z,1014
2019-02-05T11:14:43.893Z,1014
2019-02-05T11:15:46.180Z,1014
2019-02-05T11:16:48.742Z,1014
2019-02-05T11:17:52.126Z,1014
2019-02-05T11:18:54.409Z,1014
2019-02-05T11:19:56.748Z,1014
2019-02-05T11:20:59.288Z,1014
2019-02-05T11:22:01.894Z,1014
2019-02-05T11:23:04.187Z,1014
2019-02-05T11:24:06.763Z,1014
2019-02-05T11:25:09.062Z,1014
2019-02-05T11:26:11.330Z,1014
2019-02-05T11:27:13.918Z,1014.1
2019-02-05T11:28:17.656Z,1014.1
2019-02-05T11:29:19.911Z,1014.1
2019-02-05T11:30:22.201Z,1014.1
2019-02-05T11:31:24.485Z,1014
2019-02-05T11:32:26.726Z,1014.2
2019-02-05T11:33:28.977Z,1014.2
2019-02-05T11:34:31.308Z,1014.1
2019-02-05T11:35:33.594Z,1014.1
2019-02-05T11:36:36.176Z,1014.1
2019-02-05T11:37:38.736Z,1014.1
2019-02-05T11:38:42.179Z,1014.1
2019-02-05T11:39:44.489Z,1014.2
2019-02-05T11:40:46.834Z,1014.2
2019-02-05T11:41:49.250Z,1014.2
2019-02-05T11:42:51.548Z,1014.2
2019-02-05T11:43:54.110Z,1014.1
2019-02-05T11:44:56.422Z,1014.1
2019-02-05T11:45:58.966Z,1014.2
2019-02-05T11:47:04.323Z,1014.1
2019-02-05T11:48:07.210Z,1014.1
2019-02-05T11:49:10.607Z,1014.1
2019-02-05T11:50:13.405Z,1014.1
2019-02-05T11:51:15.663Z,1014.1
2019-02-05T11:52:17.911Z,1014.1
2019-02-05T11:53:20.164Z,1014.1
2019-02-05T11:54:22.760Z,1014.1
2019-02-05T11:55:25.033Z,1014.1
2019-02-05T11:56:27.334Z,1014
2019-02-05T11:57:30.020Z,1014
2019-02-05T11:58:32.564Z,1014
2019-02-05T11:59:35.639Z,1014.1
2019-02-05T12:00:38.419Z,1014.1
2019-02-05T12:01:40.705Z,1014.1
2019-02-05T12:02:42.988Z,1014.1
2019-02-05T12:03:45.289Z,1014.1
2019-02-05T12:04:47.585Z,1014.1
2019-02-05T12:05:49.839Z,1014.1
2019-02-05T12:06:52.141Z,1014.1
2019-02-05T12:07:54.449Z,1014.1
2019-02-05T12:08:57.085Z,1014.1
2019-02-05T12:10:00.042Z,1014.1
2019-02-05T12:11:02.432Z,1014.1
2019-02-05T12:12:04.691Z,1014.2
2019-02-05T12:13:06.950Z,1014.2
2019-02-05T12:14:09.279Z,1014.2
2019-02-05T12:15:11.567Z,1014.1
2019-02-05T12:16:14.134Z,1014.1
2019-02-05T12:17:16.458Z,1014.2
2019-02-05T12:18:18.874Z,1014.1
2019-02-05T12:19:21.317Z,1014.2
2019-02-05T12:20:24.822Z,1014.1
2019-02-05T12:21:27.087Z,1014.1
2019-02-05T12:22:29.503Z,1014.1
2019-02-05T12:23:31.788Z,1014.1
2019-02-05T12:24:34.037Z,1014.1
2019-02-05T12:25:36.322Z,1014.2
2019-02-05T12:26:38.621Z,1014.1
2019-02-05T12:27:40.913Z,1014
2019-02-05T12:28:43.355Z,1014.1
2019-02-05T12:29:45.594Z,1014
2019-02-05T12:30:48.959Z,1014.1
2019-02-05T12:31:51.212Z,1014
2019-02-05T12:32:53.453Z,1014.1
2019-02-05T12:33:55.731Z,1014.1
2019-02-05T12:34:57.974Z,1014.1
2019-02-05T12:36:00.195Z,1014
2019-02-05T12:37:02.867Z,1014.1
2019-02-05T12:38:05.515Z,1014.2
2019-02-05T12:39:07.765Z,1014.2
2019-02-05T12:40:10.651Z,1014.1
2019-02-05T12:41:14.011Z,1014.1
2019-02-05T12:42:16.236Z,1014.2
2019-02-05T12:43:18.478Z,1014.1
2019-02-05T12:44:20.745Z,1014
2019-02-05T12:45:22.971Z,1014.1
2019-02-05T12:46:25.240Z,1014.1
2019-02-05T12:47:27.494Z,1014.1
2019-02-05T12:48:29.761Z,1014.2
2019-02-05T12:49:31.995Z,1014
2019-02-05T12:50:34.556Z,1014.1
2019-02-05T12:51:38.032Z,1014.2
2019-02-05T12:52:40.281Z,1014.1
2019-02-05T12:53:42.835Z,1014.1
2019-02-05T12:54:45.175Z,1014.1
2019-02-05T12:55:47.418Z,1014.1
2019-02-05T12:56:49.659Z,1014.1
2019-02-05T12:57:51.930Z,1014.2
2019-02-05T12:58:54.524Z,1014.2
2019-02-05T12:59:56.754Z,1014.2
2019-02-05T13:01:01.595Z,1014.1
2019-02-05T13:02:04.099Z,1014.2
2019-02-05T13:03:07.625Z,1014.2
2019-02-05T13:04:09.861Z,1014.2
2019-02-05T13:05:12.226Z,1014.1
2019-02-05T13:06:14.451Z,1014.2
2019-02-05T13:07:16.691Z,1014.2
2019-02-05T13:08:18.903Z,1014.2